Time;durP1;ratioP1;P1;durP2;ratioP2;P2;SDS_P1;SDS_P2;PMS_P1;PMS_P2;Temp;Humidity;BMP_temperature;BMP_pressure;BME280_temperature;BME280_humidity;BME280_pressure;Samples;Min_cycle;Max_cycle;Signal;HPM_P1;HPM_P2
2023/06/01 00:00:47;;;;;;;6.63;2.70;;;16.00;99.90;;;;;;5052196;28;20041;-62
2023/06/01 00:03:15;;;;;;;7.25;2.75;;;16.20;99.90;;;;;;5049197;28;20085;-59
2023/06/01 00:05:42;;;;;;;5.65;2.80;;;16.30;99.90;;;;;;5051850;28;20039;-59
2023/06/01 00:08:10;;;;;;;9.20;3.42;;;16.50;99.90;;;;;;5049729;28;20116;-60
2023/06/01 00:10:37;;;;;;;6.00;2.95;;;16.60;99.90;;;;;;5055742;28;20013;-60
2023/06/01 00:13:05;;;;;;;8.00;2.92;;;16.70;99.90;;;;;;5058665;28;20028;-56
2023/06/01 00:15:32;;;;;;;7.13;2.20;;;16.80;99.90;;;;;;5057185;28;20116;-55
2023/06/01 00:18:00;;;;;;;7.90;3.00;;;16.90;99.90;;;;;;5070885;28;20135;-51
2023/06/01 00:20:28;;;;;;;8.63;2.65;;;17.00;99.90;;;;;;5061790;28;20028;-51
2023/06/01 00:22:58;;;;;;;7.45;2.65;;;17.10;99.90;;;;;;5055082;28;20082;-51
2023/06/01 00:25:25;;;;;;;5.97;2.08;;;17.10;99.90;;;;;;5055458;28;20056;-54
2023/06/01 00:27:53;;;;;;;3.95;1.58;;;17.20;99.90;;;;;;5055082;28;20078;-54
2023/06/01 00:30:20;;;;;;;3.50;2.03;;;17.30;99.90;;;;;;5059090;28;20938;-55
2023/06/01 00:32:48;;;;;;;4.82;1.75;;;17.40;99.90;;;;;;5063655;28;20389;-51
2023/06/01 00:35:15;;;;;;;3.50;1.60;;;17.50;99.90;;;;;;5053990;28;20561;-51
2023/06/01 00:37:43;;;;;;;6.07;1.88;;;17.60;99.90;;;;;;5051539;28;20048;-52
2023/06/01 00:40:11;;;;;;;5.88;1.63;;;17.60;99.90;;;;;;5059036;28;20035;-53
2023/06/01 00:42:38;;;;;;;2.20;1.08;;;17.70;99.90;;;;;;5063838;28;20026;-56
2023/06/01 00:45:06;;;;;;;3.35;1.52;;;17.70;99.90;;;;;;5061549;28;20027;-56
2023/06/01 00:47:43;;;;;;;3.47;1.67;;;17.70;99.90;;;;;;5056415;28;20021;-54
2023/06/01 00:50:14;;;;;;;2.22;1.05;;;17.70;99.90;;;;;;5068008;28;20029;-55
2023/06/01 00:52:42;;;;;;;4.20;0.95;;;17.70;99.90;;;;;;5068503;28;20040;-53
2023/06/01 00:55:11;;;;;;;2.75;1.05;;;17.80;99.90;;;;;;5062934;28;20449;-55
2023/06/01 00:57:42;;;;;;;2.42;0.82;;;17.80;99.90;;;;;;5076126;28;20033;-50
2023/06/01 01:00:10;;;;;;;6.70;1.55;;;17.80;99.90;;;;;;5082857;28;20376;-50
2023/06/01 01:02:44;;;;;;;3.22;1.10;;;17.80;99.90;;;;;;5079614;28;20031;-54
2023/06/01 01:05:12;;;;;;;6.35;1.60;;;17.90;99.90;;;;;;5081883;28;20404;-52
2023/06/01 01:07:54;;;;;;;1.42;0.73;;;17.90;99.90;;;;;;5074357;28;20108;-54
2023/06/01 01:10:38;;;;;;;2.83;1.17;;;17.90;99.90;;;;;;5076746;28;20032;-58
2023/06/01 01:13:18;;;;;;;3.88;0.70;;;18.10;99.90;;;;;;5079709;28;20035;-56
2023/06/01 01:16:07;;;;;;;1.67;0.90;;;18.30;99.90;;;;;;5067051;28;20446;-55
2023/06/01 01:18:42;;;;;;;1.40;0.60;;;18.50;99.90;;;;;;5075576;28;20113;-49
2023/06/01 01:21:27;;;;;;;1.85;0.85;;;18.70;99.90;;;;;;5073390;28;20137;-54
2023/06/01 01:23:58;;;;;;;2.25;1.00;;;18.90;99.90;;;;;;5072938;28;20610;-53
2023/06/01 01:26:53;;;;;;;1.35;0.88;;;19.10;99.90;;;;;;5082330;28;20021;-57
2023/06/01 01:29:24;;;;;;;1.92;0.63;;;19.30;99.90;;;;;;5059094;28;20059;-55
2023/06/01 01:31:52;;;;;;;2.83;1.00;;;19.40;99.90;;;;;;5074165;28;20070;-55
2023/06/01 01:34:21;;;;;;;1.27;0.68;;;19.40;99.90;;;;;;5076109;28;20080;-54
2023/06/01 01:36:48;;;;;;;0.98;0.63;;;19.50;99.90;;;;;;5075255;28;20024;-54
2023/06/01 01:39:16;;;;;;;2.13;0.52;;;19.60;99.90;;;;;;5086124;28;20021;-54
2023/06/01 01:41:43;;;;;;;1.65;0.90;;;19.60;99.90;;;;;;5071805;28;20028;-52
2023/06/01 01:44:11;;;;;;;4.95;2.00;;;19.60;99.90;;;;;;5079507;28;20031;-58
2023/06/01 01:47:09;;;;;;;10.07;1.95;;;19.70;99.90;;;;;;5076407;28;20029;-52
2023/06/01 01:49:45;;;;;;;2.20;0.57;;;19.70;99.90;;;;;;5081793;28;20025;-55
2023/06/01 01:52:42;;;;;;;1.10;0.63;;;19.80;99.90;;;;;;5079760;28;20032;-56
2023/06/01 01:55:11;;;;;;;3.88;0.70;;;19.70;99.90;;;;;;5067571;28;20414;-51
2023/06/01 01:57:40;;;;;;;5.65;1.85;;;19.80;99.90;;;;;;5083150;28;20040;-55
2023/06/01 02:00:09;;;;;;;3.03;0.98;;;19.80;99.90;;;;;;5070013;28;20031;-53
2023/06/01 02:02:36;;;;;;;2.20;1.00;;;19.90;99.90;;;;;;5069028;28;20531;-52
2023/06/01 02:05:04;;;;;;;1.95;0.88;;;20.00;99.90;;;;;;5079460;28;20490;-54
2023/06/01 02:07:34;;;;;;;5.20;1.85;;;20.00;99.90;;;;;;5082098;28;20032;-52
2023/06/01 02:10:02;;;;;;;3.38;1.70;;;20.10;99.90;;;;;;5070516;28;20025;-54
2023/06/01 02:12:29;;;;;;;4.13;1.58;;;20.10;99.90;;;;;;5076646;28;20055;-52
2023/06/01 02:14:57;;;;;;;3.40;1.40;;;20.10;99.90;;;;;;5076409;28;20016;-53
2023/06/01 02:17:26;;;;;;;4.70;2.45;;;20.20;99.90;;;;;;5082255;28;20500;-52
2023/06/01 02:19:54;;;;;;;2.33;0.82;;;20.20;99.90;;;;;;5063391;28;20047;-54
2023/06/01 02:22:21;;;;;;;11.35;2.70;;;20.20;99.90;;;;;;5076931;28;20032;-58
2023/06/01 02:24:49;;;;;;;8.98;3.05;;;20.30;99.90;;;;;;5076439;28;20020;-55
2023/06/01 02:27:16;;;;;;;5.43;2.92;;;20.20;99.90;;;;;;5073645;28;20062;-54
2023/06/01 02:29:44;;;;;;;5.47;1.73;;;20.20;99.90;;;;;;5079187;28;20023;-50
2023/06/01 02:32:11;;;;;;;7.25;2.53;;;20.20;99.90;;;;;;5064406;28;20042;-55
2023/06/01 02:34:39;;;;;;;4.80;2.20;;;20.30;99.90;;;;;;5055914;28;20108;-54
2023/06/01 02:37:07;;;;;;;4.63;1.98;;;20.30;99.90;;;;;;5078024;28;20439;-53
2023/06/01 02:39:34;;;;;;;5.32;2.90;;;20.30;99.90;;;;;;5072345;28;20373;-53
2023/06/01 02:42:01;;;;;;;8.30;2.42;;;20.30;99.90;;;;;;5058226;28;20453;-58
2023/06/01 02:44:29;;;;;;;5.70;2.33;;;20.30;99.90;;;;;;5057428;28;20023;-58
2023/06/01 02:46:56;;;;;;;7.53;2.50;;;20.30;99.90;;;;;;5075512;28;20061;-58
2023/06/01 02:49:24;;;;;;;5.72;2.58;;;20.20;99.90;;;;;;5073759;28;20110;-58
2023/06/01 02:51:51;;;;;;;4.20;1.77;;;20.20;99.90;;;;;;5075668;28;20035;-58
2023/06/01 02:54:18;;;;;;;5.55;2.10;;;20.10;99.90;;;;;;5070677;28;20044;-60
2023/06/01 02:56:46;;;;;;;2.58;1.40;;;20.10;99.90;;;;;;5074811;28;20029;-58
2023/06/01 02:59:13;;;;;;;3.50;1.33;;;20.00;99.90;;;;;;5059706;28;20020;-58
2023/06/01 03:01:41;;;;;;;2.65;1.42;;;20.00;99.90;;;;;;5076722;28;20377;-58
2023/06/01 03:04:10;;;;;;;3.20;1.27;;;20.00;99.90;;;;;;5081221;28;20027;-58
2023/06/01 03:06:38;;;;;;;3.33;1.33;;;20.00;99.90;;;;;;5087302;28;20018;-59
2023/06/01 03:09:12;;;;;;;3.30;1.65;;;20.10;99.90;;;;;;5073372;28;20036;-57
2023/06/01 03:11:42;;;;;;;3.25;1.17;;;20.20;99.90;;;;;;5077323;28;20047;-58
2023/06/01 03:14:09;;;;;;;5.60;1.95;;;20.20;99.90;;;;;;5076417;28;20024;-59
2023/06/01 03:16:37;;;;;;;6.97;1.80;;;20.30;99.90;;;;;;5071466;28;20432;-58
2023/06/01 03:19:05;;;;;;;1.63;0.90;;;20.20;99.90;;;;;;5095388;28;20027;-57
2023/06/01 03:21:32;;;;;;;1.45;0.80;;;20.20;99.90;;;;;;5071285;28;20057;-58
2023/06/01 03:24:00;;;;;;;3.10;1.13;;;20.20;99.90;;;;;;5070171;28;20496;-58
2023/06/01 03:26:28;;;;;;;3.97;0.85;;;20.30;99.90;;;;;;5081194;28;20024;-57
2023/06/01 03:28:55;;;;;;;4.35;1.63;;;20.30;99.90;;;;;;5080000;28;20047;-59
2023/06/01 03:31:23;;;;;;;3.13;1.30;;;20.30;99.90;;;;;;5084814;28;20480;-58
2023/06/01 03:33:51;;;;;;;5.07;2.80;;;20.30;99.90;;;;;;5074409;28;20081;-57
2023/06/01 03:36:19;;;;;;;7.57;1.52;;;20.30;99.90;;;;;;5079581;28;20085;-60
2023/06/01 03:38:46;;;;;;;3.33;1.70;;;20.30;99.90;;;;;;5080793;28;20384;-57
2023/06/01 03:41:14;;;;;;;9.40;3.92;;;20.20;99.90;;;;;;5082645;28;20028;-57
2023/06/01 03:43:42;;;;;;;8.20;3.25;;;20.30;99.90;;;;;;5074796;28;20024;-58
2023/06/01 03:46:09;;;;;;;7.28;2.40;;;20.30;99.90;;;;;;5061265;28;20020;-58
2023/06/01 03:48:37;;;;;;;5.75;2.10;;;20.30;99.90;;;;;;5083205;28;20035;-57
2023/06/01 03:51:04;;;;;;;3.35;1.35;;;20.30;99.90;;;;;;5078160;28;20373;-58
2023/06/01 03:53:33;;;;;;;1.70;1.02;;;20.20;99.90;;;;;;5061352;28;20044;-59
2023/06/01 03:56:00;;;;;;;2.45;1.38;;;20.30;99.90;;;;;;5071992;28;20024;-59
2023/06/01 03:58:28;;;;;;;1.48;0.75;;;20.20;99.90;;;;;;5078181;28;20023;-57
2023/06/01 04:00:56;;;;;;;6.55;0.90;;;20.20;99.90;;;;;;5073000;28;20706;-58
2023/06/01 04:03:25;;;;;;;2.78;0.98;;;20.30;99.90;;;;;;5076368;28;20025;-58
2023/06/01 04:05:58;;;;;;;4.55;0.90;;;20.30;99.90;;;;;;5075119;28;20032;-58
2023/06/01 04:08:29;;;;;;;5.68;1.30;;;20.30;99.90;;;;;;5085071;28;20028;-58
2023/06/01 04:10:56;;;;;;;8.80;2.28;;;20.20;99.90;;;;;;5062576;28;20026;-57
2023/06/01 04:13:24;;;;;;;6.35;2.78;;;20.20;99.90;;;;;;5062226;28;20025;-58
2023/06/01 04:15:51;;;;;;;4.53;2.28;;;20.20;99.90;;;;;;5074520;28;20021;-58
2023/06/01 04:18:19;;;;;;;4.68;1.17;;;20.20;99.90;;;;;;5065515;28;20388;-58
2023/06/01 04:20:48;;;;;;;2.03;1.00;;;20.30;99.90;;;;;;5087437;28;20017;-57
2023/06/01 04:23:16;;;;;;;4.03;1.23;;;20.20;99.90;;;;;;5081178;28;20073;-56
2023/06/01 04:25:43;;;;;;;3.13;0.88;;;20.20;99.90;;;;;;5083504;28;20032;-57
2023/06/01 04:28:11;;;;;;;4.90;1.00;;;20.10;99.90;;;;;;5075518;28;20519;-58
2023/06/01 04:30:39;;;;;;;2.53;0.98;;;20.10;99.90;;;;;;5048916;28;20028;-58
2023/06/01 04:33:06;;;;;;;2.30;0.80;;;20.10;99.90;;;;;;5061075;28;20020;-58
2023/06/01 04:35:34;;;;;;;1.40;0.93;;;20.10;99.90;;;;;;5079783;28;20115;-56
2023/06/01 04:38:02;;;;;;;1.30;0.60;;;20.10;99.90;;;;;;5074284;28;20020;-58
2023/06/01 04:40:30;;;;;;;2.67;0.93;;;20.00;99.90;;;;;;5060730;28;20067;-59
2023/06/01 04:42:57;;;;;;;1.15;0.65;;;20.00;99.90;;;;;;5073629;28;20519;-57
2023/06/01 04:45:25;;;;;;;3.40;1.17;;;20.00;99.90;;;;;;5071977;28;20059;-57
2023/06/01 04:47:57;;;;;;;2.83;1.60;;;20.00;99.90;;;;;;5054222;28;20075;-58
2023/06/01 04:50:24;;;;;;;1.45;0.85;;;20.00;99.90;;;;;;5074807;28;20016;-58
2023/06/01 04:52:52;;;;;;;2.72;1.10;;;19.90;99.90;;;;;;5081202;28;20040;-57
2023/06/01 04:55:20;;;;;;;0.95;0.60;;;19.90;99.90;;;;;;5072094;28;20909;-58
2023/06/01 04:57:47;;;;;;;1.55;0.90;;;19.90;99.90;;;;;;5081601;28;20724;-60
2023/06/01 05:00:18;;;;;;;2.58;0.90;;;19.90;99.90;;;;;;5077570;28;20688;-58
2023/06/01 05:02:48;;;;;;;2.88;0.93;;;19.90;99.90;;;;;;5079204;28;20040;-58
2023/06/01 05:05:16;;;;;;;2.35;0.70;;;19.80;99.90;;;;;;5073672;28;20060;-57
2023/06/01 05:07:44;;;;;;;1.45;0.85;;;19.80;99.90;;;;;;5073207;28;20115;-57
2023/06/01 05:10:13;;;;;;;1.88;0.90;;;19.70;99.90;;;;;;5076492;28;20048;-57
2023/06/01 05:12:41;;;;;;;2.85;0.80;;;19.60;99.90;;;;;;5069075;28;20031;-57
2023/06/01 05:15:10;;;;;;;1.73;0.93;;;19.50;99.90;;;;;;5055006;28;20028;-58
2023/06/01 05:17:38;;;;;;;1.73;0.90;;;19.40;99.90;;;;;;5083186;28;20022;-57
2023/06/01 05:20:08;;;;;;;1.02;0.70;;;19.30;99.90;;;;;;5082483;28;20108;-58
2023/06/01 05:22:36;;;;;;;2.63;0.80;;;19.30;99.90;;;;;;5083290;28;20515;-59
2023/06/01 05:25:07;;;;;;;1.95;0.95;;;19.30;99.90;;;;;;5075884;28;20101;-59
2023/06/01 05:27:34;;;;;;;4.57;1.17;;;19.20;99.90;;;;;;5077108;28;20070;-59
2023/06/01 05:30:02;;;;;;;4.90;1.20;;;19.10;99.90;;;;;;5079904;28;20031;-59
2023/06/01 05:32:30;;;;;;;5.15;1.08;;;19.10;99.90;;;;;;5076684;28;20485;-61
2023/06/01 05:35:00;;;;;;;6.38;1.98;;;19.10;99.90;;;;;;5079214;28;20032;-60
2023/06/01 05:37:27;;;;;;;5.47;2.20;;;19.10;99.90;;;;;;5077847;28;20437;-61
2023/06/01 05:39:55;;;;;;;6.35;2.10;;;19.10;99.90;;;;;;5077819;28;20024;-63
2023/06/01 05:42:22;;;;;;;6.57;3.22;;;19.00;99.90;;;;;;5053789;28;20448;-59
2023/06/01 05:44:50;;;;;;;5.07;2.38;;;19.00;99.90;;;;;;5075365;28;20074;-60
2023/06/01 05:47:17;;;;;;;6.10;1.80;;;19.00;99.90;;;;;;5077225;28;20036;-64
2023/06/01 05:49:45;;;;;;;3.67;1.80;;;19.00;99.90;;;;;;5081246;28;20021;-62
2023/06/01 05:52:13;;;;;;;4.05;1.70;;;19.00;99.90;;;;;;5077683;28;20030;-61
2023/06/01 05:54:41;;;;;;;5.57;2.15;;;18.90;99.90;;;;;;5062634;28;20051;-60
2023/06/01 05:57:09;;;;;;;5.78;1.98;;;18.90;99.90;;;;;;5079377;28;20059;-61
2023/06/01 05:59:37;;;;;;;7.03;2.53;;;18.80;99.90;;;;;;5059699;28;20028;-61
2023/06/01 06:02:05;;;;;;;5.07;1.98;;;18.80;99.90;;;;;;5057788;28;20119;-62
2023/06/01 06:04:32;;;;;;;7.75;2.00;;;18.70;99.90;;;;;;5071900;28;20056;-61
2023/06/01 06:07:00;;;;;;;4.20;2.03;;;18.60;99.90;;;;;;5081293;28;20035;-60
2023/06/01 06:09:27;;;;;;;5.47;1.83;;;18.50;99.90;;;;;;5080222;28;20044;-61
2023/06/01 06:11:55;;;;;;;6.95;1.40;;;18.40;99.90;;;;;;5079722;28;20021;-61
2023/06/01 06:14:22;;;;;;;5.50;1.40;;;18.30;99.90;;;;;;5081615;28;20031;-62
2023/06/01 06:16:52;;;;;;;3.08;1.27;;;18.20;99.90;;;;;;5078845;28;20439;-62
2023/06/01 06:19:20;;;;;;;5.18;1.42;;;18.20;99.90;;;;;;5082261;28;20040;-61
2023/06/01 06:21:47;;;;;;;3.85;1.77;;;18.10;99.90;;;;;;5056860;28;20035;-65
2023/06/01 06:24:15;;;;;;;5.07;1.27;;;18.00;99.90;;;;;;5070964;28;20099;-60
2023/06/01 06:26:42;;;;;;;3.47;1.02;;;17.80;99.90;;;;;;5080460;28;20032;-61
2023/06/01 06:29:10;;;;;;;3.60;1.10;;;17.70;99.90;;;;;;5064365;28;20031;-60
2023/06/01 06:31:38;;;;;;;2.92;1.27;;;17.60;99.90;;;;;;5073248;28;20618;-60
2023/06/01 06:34:05;;;;;;;4.75;1.13;;;17.50;99.90;;;;;;5072609;28;20033;-60
2023/06/01 06:36:33;;;;;;;3.13;1.20;;;17.30;99.90;;;;;;5076802;28;20070;-61
2023/06/01 06:39:00;;;;;;;5.35;1.13;;;17.20;99.90;;;;;;5082586;28;20438;-60
2023/06/01 06:41:27;;;;;;;5.00;1.30;;;17.00;99.90;;;;;;5072123;28;20043;-61
2023/06/01 06:43:55;;;;;;;2.00;1.20;;;16.90;99.90;;;;;;5081256;28;20105;-61
2023/06/01 06:46:22;;;;;;;4.35;1.10;;;16.80;99.90;;;;;;5058495;28;20040;-61
2023/06/01 06:48:50;;;;;;;3.55;1.13;;;16.70;99.90;;;;;;5070691;28;20024;-61
2023/06/01 06:51:18;;;;;;;4.18;1.13;;;16.60;99.90;;;;;;5079492;28;20027;-61
2023/06/01 06:53:45;;;;;;;5.47;1.17;;;16.50;99.90;;;;;;5070173;28;20468;-61
2023/06/01 06:56:13;;;;;;;6.95;1.88;;;16.30;99.90;;;;;;5059628;28;20078;-60
2023/06/01 06:58:40;;;;;;;3.28;1.20;;;16.10;99.90;;;;;;5053055;28;20098;-60
2023/06/01 07:01:08;;;;;;;5.50;1.50;;;16.00;99.90;;;;;;5048703;28;20733;-61
2023/06/01 07:03:35;;;;;;;4.03;1.35;;;15.80;99.90;;;;;;5052771;28;20025;-60
2023/06/01 07:06:03;;;;;;;3.42;1.48;;;15.70;99.90;;;;;;5057153;28;20024;-61
2023/06/01 07:08:34;;;;;;;4.57;1.63;;;15.60;99.90;;;;;;5047300;28;20087;-61
2023/06/01 07:11:02;;;;;;;3.90;1.42;;;15.40;99.90;;;;;;5053605;28;20029;-60
2023/06/01 07:13:29;;;;;;;3.28;1.13;;;15.30;99.90;;;;;;5054230;28;20388;-60
2023/06/01 07:15:57;;;;;;;2.05;1.20;;;15.20;99.90;;;;;;5063004;28;20111;-61
2023/06/01 07:18:24;;;;;;;5.05;1.63;;;15.10;99.90;;;;;;5051619;28;20037;-62
2023/06/01 07:20:52;;;;;;;6.18;1.60;;;15.10;99.90;;;;;;5049107;28;20052;-61
2023/06/01 07:23:20;;;;;;;5.22;2.10;;;15.10;99.90;;;;;;5045357;28;20035;-62
2023/06/01 07:25:47;;;;;;;2.65;1.27;;;15.00;99.90;;;;;;5057779;28;20024;-61
2023/06/01 07:28:15;;;;;;;5.78;1.27;;;15.00;99.90;;;;;;5056602;28;20024;-60
2023/06/01 07:30:43;;;;;;;4.07;1.23;;;14.90;99.90;;;;;;5061035;28;20040;-60
2023/06/01 07:33:11;;;;;;;6.10;1.77;;;14.80;99.90;;;;;;5061824;28;20032;-60
2023/06/01 07:35:39;;;;;;;5.18;1.70;;;14.70;99.90;;;;;;5051334;28;20056;-60
2023/06/01 07:38:07;;;;;;;6.30;2.55;;;14.60;99.90;;;;;;5048916;28;20021;-64
2023/06/01 07:40:35;;;;;;;17.05;3.92;;;14.50;99.90;;;;;;5051644;28;20413;-58
2023/06/01 07:43:02;;;;;;;6.88;2.72;;;14.50;99.90;;;;;;5055392;28;20040;-59
2023/06/01 07:45:30;;;;;;;8.52;3.33;;;14.40;99.90;;;;;;5052498;28;20031;-59
2023/06/01 07:47:57;;;;;;;7.63;2.33;;;14.40;99.90;;;;;;5058440;28;20029;-59
2023/06/01 07:50:29;;;;;;;8.15;2.50;;;14.40;99.90;;;;;;5048895;28;20082;-60
2023/06/01 07:52:57;;;;;;;4.63;2.08;;;14.30;99.90;;;;;;5058613;28;20341;-60
2023/06/01 07:55:24;;;;;;;4.47;1.85;;;14.40;99.90;;;;;;5073008;28;20417;-59
2023/06/01 07:57:53;;;;;;;5.88;2.90;;;14.30;99.90;;;;;;5076493;28;20745;-59
2023/06/01 08:00:22;;;;;;;7.05;2.00;;;14.20;99.90;;;;;;5075932;28;20521;-60
2023/06/01 08:02:50;;;;;;;7.47;2.30;;;14.10;99.90;;;;;;5060305;28;20068;-59
2023/06/01 08:05:18;;;;;;;7.45;2.13;;;14.10;99.90;;;;;;5058853;28;20025;-63
2023/06/01 08:07:46;;;;;;;10.35;2.42;;;14.00;99.90;;;;;;5076693;28;20146;-58
2023/06/01 08:10:14;;;;;;;16.25;2.55;;;13.90;99.90;;;;;;5085954;28;20028;-57
2023/06/01 08:12:42;;;;;;;18.48;3.78;;;13.90;99.90;;;;;;5070969;28;20031;-58
2023/06/01 08:15:14;;;;;;;16.23;3.28;;;13.80;99.90;;;;;;5068877;28;20012;-56
2023/06/01 08:17:41;;;;;;;12.27;2.83;;;13.70;99.90;;;;;;5068305;28;20051;-55
2023/06/01 08:20:10;;;;;;;17.00;3.53;;;13.50;99.90;;;;;;5072557;28;20016;-57
2023/06/01 08:22:38;;;;;;;34.88;3.63;;;13.50;99.90;;;;;;5077906;28;20032;-54
2023/06/01 08:25:06;;;;;;;14.90;2.97;;;13.50;99.90;;;;;;5051080;28;20032;-56
2023/06/01 08:27:34;;;;;;;23.15;4.65;;;13.50;99.90;;;;;;5077809;28;20024;-60
2023/06/01 08:30:01;;;;;;;38.95;6.22;;;13.60;99.90;;;;;;5080296;28;20386;-60
2023/06/01 08:32:30;;;;;;;26.25;4.10;;;13.60;99.90;;;;;;5081100;28;20028;-60
2023/06/01 08:34:57;;;;;;;15.98;3.35;;;13.60;99.90;;;;;;5080609;28;20059;-61
2023/06/01 08:37:24;;;;;;;23.80;3.85;;;13.50;99.90;;;;;;5080786;28;20020;-60
2023/06/01 08:39:52;;;;;;;11.73;3.15;;;13.60;99.90;;;;;;5076456;28;20044;-61
2023/06/01 08:42:45;;;;;;;15.93;3.35;;;13.60;99.90;;;;;;5066381;28;20849;-60
2023/06/01 08:45:13;;;;;;;11.05;2.85;;;13.50;99.90;;;;;;5074721;28;20029;-60
2023/06/01 08:47:45;;;;;;;10.95;2.90;;;13.50;99.90;;;;;;5076701;28;20029;-60
2023/06/01 08:50:14;;;;;;;11.35;2.42;;;13.40;99.90;;;;;;5085261;28;20028;-60
2023/06/01 08:52:44;;;;;;;8.52;2.33;;;13.30;99.90;;;;;;5053398;28;20541;-60
2023/06/01 08:55:11;;;;;;;7.07;2.40;;;13.30;99.90;;;;;;5057748;28;20031;-60
2023/06/01 08:57:42;;;;;;;6.70;2.60;;;13.20;99.90;;;;;;5056705;28;20076;-60
2023/06/01 09:00:14;;;;;;;10.75;3.13;;;13.30;99.90;;;;;;5058277;28;20111;-60
2023/06/01 09:02:42;;;;;;;12.00;3.08;;;13.20;99.90;;;;;;5065877;28;20039;-59
2023/06/01 09:05:11;;;;;;;8.95;2.40;;;13.20;99.90;;;;;;5071341;28;20036;-60
2023/06/01 09:07:39;;;;;;;9.48;2.65;;;13.30;99.90;;;;;;5057828;28;20045;-59
2023/06/01 09:10:07;;;;;;;9.90;2.95;;;13.30;99.90;;;;;;5061201;28;20047;-59
2023/06/01 09:12:35;;;;;;;6.72;2.22;;;13.40;99.90;;;;;;5055030;28;20052;-59
2023/06/01 09:15:06;;;;;;;14.77;2.92;;;13.40;99.90;;;;;;5060580;28;20500;-59
2023/06/01 09:17:34;;;;;;;9.07;2.05;;;13.40;99.90;;;;;;5065854;28;20025;-61
2023/06/01 09:20:03;;;;;;;7.55;2.50;;;13.40;99.90;;;;;;5056763;28;20021;-59
2023/06/01 09:22:45;;;;;;;11.68;3.03;;;13.30;99.90;;;;;;5054366;28;20075;-59
2023/06/01 09:25:13;;;;;;;7.85;2.88;;;13.30;99.90;;;;;;5066341;28;20155;-59
2023/06/01 09:27:45;;;;;;;12.00;3.00;;;13.10;99.90;;;;;;5056951;28;20025;-59
2023/06/01 09:30:14;;;;;;;7.47;2.65;;;13.10;99.90;;;;;;5057059;28;20567;-59
2023/06/01 09:32:44;;;;;;;13.45;3.13;;;13.10;99.90;;;;;;5056125;28;20028;-59
2023/06/01 09:35:12;;;;;;;4.72;2.38;;;13.20;99.90;;;;;;5052174;28;20025;-55
2023/06/01 09:37:54;;;;;;;9.13;3.30;;;13.20;99.90;;;;;;5060968;28;20020;-61
2023/06/01 09:40:21;;;;;;;8.55;2.42;;;13.30;99.90;;;;;;5051358;28;20028;-61
2023/06/01 09:42:50;;;;;;;7.35;2.65;;;13.40;99.90;;;;;;5053215;28;20087;-60
2023/06/01 09:45:21;;;;;;;9.48;2.33;;;13.40;99.90;;;;;;5065539;28;20029;-59
2023/06/01 09:47:50;;;;;;;9.13;2.40;;;13.30;99.90;;;;;;5055570;28;20020;-61
2023/06/01 09:50:38;;;;;;;9.02;2.60;;;13.10;99.90;;;;;;5054066;28;20020;-61
2023/06/01 09:53:06;;;;;;;12.23;2.72;;;13.00;99.90;;;;;;5061658;28;20559;-60
2023/06/01 09:55:34;;;;;;;7.55;2.78;;;12.90;99.90;;;;;;5057259;28;20047;-62
2023/06/01 09:58:21;;;;;;;9.35;2.90;;;12.80;99.90;;;;;;5080688;28;20520;-61
2023/06/01 10:00:50;;;;;;;13.43;2.58;;;12.60;99.90;;;;;;5077743;28;20057;-62
2023/06/01 10:03:19;;;;;;;10.32;2.45;;;12.50;99.90;;;;;;5070952;28;20029;-60
2023/06/01 10:05:48;;;;;;;6.32;2.70;;;12.30;99.90;;;;;;5070201;28;20426;-61
2023/06/01 10:08:17;;;;;;;14.48;3.45;;;12.30;99.90;;;;;;5073786;28;20024;-61
2023/06/01 10:10:47;;;;;;;6.78;2.50;;;12.20;99.90;;;;;;5071860;28;20032;-60
2023/06/01 10:13:15;;;;;;;21.17;3.35;;;12.20;99.90;;;;;;5051353;28;20123;-61
2023/06/01 10:15:43;;;;;;;21.65;4.90;;;12.20;99.90;;;;;;5072281;28;20022;-60
2023/06/01 10:18:10;;;;;;;17.10;3.72;;;12.30;99.90;;;;;;5073615;28;20038;-60
2023/06/01 10:20:39;;;;;;;5.45;2.78;;;12.60;99.90;;;;;;5074077;28;20500;-60
2023/06/01 10:23:07;;;;;;;8.35;2.65;;;12.70;99.90;;;;;;5071355;28;20044;-60
2023/06/01 10:25:44;;;;;;;7.80;2.97;;;12.90;99.90;;;;;;5055675;28;20533;-59
2023/06/01 10:28:13;;;;;;;8.45;2.63;;;13.00;99.90;;;;;;5073173;28;20077;-59
2023/06/01 10:30:41;;;;;;;7.57;2.60;;;13.00;99.90;;;;;;5075646;28;20129;-53
2023/06/01 10:33:08;;;;;;;6.10;2.40;;;13.00;99.90;;;;;;5054454;28;20036;-60
2023/06/01 10:35:47;;;;;;;6.38;2.58;;;13.30;99.90;;;;;;5075053;28;20032;-60
2023/06/01 10:38:17;;;;;;;6.10;2.60;;;13.50;99.90;;;;;;5074368;28;20024;-59
2023/06/01 10:40:46;;;;;;;10.32;4.00;;;13.50;99.90;;;;;;5071344;28;20024;-60
2023/06/01 10:43:40;;;;;;;7.85;3.60;;;13.40;99.90;;;;;;5054747;28;20054;-61
2023/06/01 10:46:36;;;;;;;9.43;4.47;;;13.30;99.90;;;;;;5074659;28;20683;-59
2023/06/01 10:49:03;;;;;;;;;;;13.10;99.90;;;;;;5074954;28;20035;-60
2023/06/01 10:51:31;;;;;;;23.05;12.93;;;13.00;99.90;;;;;;5054949;28;19934;-59
2023/06/01 10:54:29;;;;;;;33.20;17.67;;;12.90;99.90;;;;;;5063964;28;20067;-60
2023/06/01 10:57:22;;;;;;;51.90;29.52;;;12.70;99.90;;;;;;5068168;28;20036;-60
2023/06/01 11:00:10;;;;;;;42.40;22.90;;;12.70;99.90;;;;;;5077424;28;20133;-59
2023/06/01 11:02:53;;;;;;;39.33;18.85;;;12.80;99.90;;;;;;5072829;28;20631;-58
2023/06/01 11:05:41;;;;;;;33.20;14.20;;;13.00;99.90;;;;;;5079867;28;20020;-60
2023/06/01 11:08:21;;;;;;;28.27;13.43;;;13.20;99.90;;;;;;5069586;28;20028;-61
2023/06/01 11:10:52;;;;;;;30.77;8.32;;;13.30;99.90;;;;;;5072898;28;20043;-60
2023/06/01 11:13:29;;;;;;;15.90;5.18;;;13.40;99.90;;;;;;5082204;28;20027;-59
2023/06/01 11:16:30;;;;;;;24.13;5.30;;;13.50;99.90;;;;;;5077796;28;20135;-59
2023/06/01 11:18:59;;;;;;;26.25;6.78;;;13.50;99.90;;;;;;5072397;28;20090;-59
2023/06/01 11:21:29;;;;;;;17.17;4.20;;;13.60;99.90;;;;;;5076996;28;20100;-58
2023/06/01 11:23:59;;;;;;;14.65;4.72;;;13.60;99.90;;;;;;5067377;28;20025;-58
2023/06/01 11:26:48;;;;;;;13.82;4.60;;;13.50;99.90;;;;;;5054174;28;20650;-60
2023/06/01 11:29:26;;;;;;;16.98;6.32;;;13.30;99.90;;;;;;5069781;28;20473;-57
2023/06/01 11:31:54;;;;;;;18.17;7.90;;;13.10;99.90;;;;;;5075920;28;20112;-58
2023/06/01 11:34:38;;;;;;;25.02;7.63;;;12.90;99.90;;;;;;5075015;28;20029;-58
2023/06/01 11:37:12;;;;;;;26.42;9.65;;;12.60;99.90;;;;;;5053771;28;20028;-55
2023/06/01 11:39:40;;;;;;;26.98;8.63;;;12.60;99.90;;;;;;5075577;28;20119;-56
2023/06/01 11:42:18;;;;;;;21.83;8.15;;;12.50;99.90;;;;;;5074525;28;20036;-57
2023/06/01 11:44:56;;;;;;;25.13;5.55;;;12.40;99.90;;;;;;5080751;28;20024;-56
2023/06/01 11:47:27;;;;;;;21.00;5.68;;;12.40;99.90;;;;;;5068252;28;20028;-57
2023/06/01 11:49:55;;;;;;;23.65;6.65;;;12.30;99.90;;;;;;5079678;28;20020;-58
2023/06/01 11:52:22;;;;;;;17.70;5.40;;;12.20;99.90;;;;;;5068360;28;20119;-59
2023/06/01 11:54:53;;;;;;;20.73;4.95;;;12.10;99.90;;;;;;5074947;28;20067;-57
2023/06/01 11:57:21;;;;;;;25.15;7.10;;;12.00;99.90;;;;;;5077159;28;20028;-53
2023/06/01 11:59:50;;;;;;;22.08;5.85;;;11.90;99.90;;;;;;5080580;28;20115;-57
2023/06/01 12:02:25;;;;;;;21.67;6.75;;;11.80;99.90;;;;;;5072919;28;20063;-58
2023/06/01 12:05:08;;;;;;;17.85;5.50;;;11.70;99.90;;;;;;5075355;28;20021;-58
2023/06/01 12:07:53;;;;;;;18.92;5.55;;;11.60;99.90;;;;;;5082650;28;20028;-57
2023/06/01 12:10:24;;;;;;;23.67;6.22;;;11.50;99.90;;;;;;5073011;28;20483;-58
2023/06/01 12:12:52;;;;;;;24.60;6.50;;;11.40;99.90;;;;;;5065960;28;20058;-58
2023/06/01 12:15:20;;;;;;;20.85;5.35;;;11.30;99.90;;;;;;5087135;28;20024;-58
2023/06/01 12:17:56;;;;;;;23.55;5.60;;;11.40;99.90;;;;;;5081069;28;20442;-58
2023/06/01 12:20:42;;;;;;;23.33;4.57;;;11.40;99.90;;;;;;5075027;28;20440;-58
2023/06/01 12:23:20;;;;;;;32.60;4.95;;;11.50;99.90;;;;;;5074908;28;20021;-57
2023/06/01 12:25:57;;;;;;;20.42;5.28;;;11.70;99.90;;;;;;5078087;28;20085;-57
2023/06/01 12:28:35;;;;;;;36.22;5.43;;;11.90;99.90;;;;;;5059290;28;20028;-60
2023/06/01 12:31:13;;;;;;;27.02;6.00;;;12.00;99.90;;;;;;5077092;28;20035;-57
2023/06/01 12:33:45;;;;;;;37.75;5.60;;;12.10;99.90;;;;;;5077792;28;20115;-56
2023/06/01 12:36:35;;;;;;;34.20;6.43;;;12.10;99.90;;;;;;5076490;28;20028;-58
2023/06/01 12:39:04;;;;;;;25.48;5.60;;;12.10;99.90;;;;;;5057168;28;20421;-57
2023/06/01 12:41:32;;;;;;;33.80;6.00;;;11.90;99.90;;;;;;5071955;28;20044;-56
2023/06/01 12:44:00;;;;;;;41.55;6.18;;;11.80;99.90;;;;;;5077236;28;20610;-57
2023/06/01 12:46:35;;;;;;;28.05;5.68;;;11.90;99.90;;;;;;5077552;28;20033;-58
2023/06/01 12:49:18;;;;;;;43.38;6.22;;;11.90;99.90;;;;;;5084350;28;20075;-59
2023/06/01 12:51:46;;;;;;;34.85;6.57;;;11.80;99.90;;;;;;5081052;28;20024;-53
2023/06/01 12:54:14;;;;;;;37.50;6.80;;;11.80;99.90;;;;;;5079292;28;20071;-55
2023/06/01 12:56:41;;;;;;;27.65;5.82;;;11.80;99.90;;;;;;5075938;28;20137;-59
2023/06/01 12:59:09;;;;;;;28.48;5.63;;;11.80;99.90;;;;;;5073942;28;20081;-56